Time;durP1;ratioP1;P1;durP2;ratioP2;P2;SDS_P1;SDS_P2;PMS_P1;PMS_P2;Temp;Humidity;BMP_temperature;BMP_pressure;BME280_temperature;BME280_humidity;BME280_pressure;Samples;Min_cycle;Max_cycle;Signal;HPM_P1;HPM_P2
2023/12/08 00:02:07;;;;;;;21.50;3.70;;;9.10;99.90;;;;;;5043337;28;20466;-47
2023/12/08 00:04:33;;;;;;;12.63;3.10;;;9.20;99.90;;;;;;5029555;28;20043;-47
2023/12/08 00:06:59;;;;;;;13.13;3.47;;;9.30;99.90;;;;;;5031190;28;20370;-45
2023/12/08 00:09:25;;;;;;;19.63;2.95;;;9.40;99.90;;;;;;5033520;28;20482;-46
2023/12/08 00:11:50;;;;;;;19.65;3.67;;;9.40;99.90;;;;;;5033118;28;20523;-45
2023/12/08 00:14:16;;;;;;;13.45;2.95;;;9.50;99.90;;;;;;5033445;28;20022;-46
2023/12/08 00:16:42;;;;;;;15.23;3.83;;;9.50;99.90;;;;;;5033083;28;20033;-47
2023/12/08 00:19:10;;;;;;;18.48;3.22;;;9.50;99.90;;;;;;5015595;28;20474;-45
2023/12/08 00:21:36;;;;;;;12.17;2.80;;;9.40;99.90;;;;;;5033083;28;20460;-45
2023/12/08 00:24:02;;;;;;;11.57;2.78;;;9.40;99.90;;;;;;5032965;28;20053;-45
2023/12/08 00:26:28;;;;;;;16.50;2.78;;;9.30;99.90;;;;;;5032945;28;20029;-50
2023/12/08 00:28:54;;;;;;;9.48;2.10;;;9.20;99.90;;;;;;5032879;28;20087;-48
2023/12/08 00:31:20;;;;;;;13.20;2.42;;;9.10;99.90;;;;;;5032923;28;20018;-45
2023/12/08 00:33:45;;;;;;;10.32;1.88;;;9.00;99.90;;;;;;5032915;28;20037;-48
2023/12/08 00:36:18;;;;;;;9.50;2.13;;;8.90;99.90;;;;;;5032853;28;20445;-49
2023/12/08 00:38:47;;;;;;;12.05;2.67;;;8.90;99.90;;;;;;5032718;28;20025;-47
2023/12/08 00:41:13;;;;;;;12.65;2.38;;;8.70;99.90;;;;;;5032855;28;20600;-45
2023/12/08 00:43:39;;;;;;;15.30;2.67;;;8.70;99.90;;;;;;5032206;28;20107;-47
2023/12/08 00:46:05;;;;;;;8.02;2.03;;;8.70;99.90;;;;;;5032342;28;20030;-51
2023/12/08 00:48:31;;;;;;;11.10;2.17;;;8.60;99.90;;;;;;5026393;28;20065;-46
2023/12/08 00:50:56;;;;;;;6.57;2.95;;;8.60;99.90;;;;;;5027556;28;20036;-45
2023/12/08 00:53:22;;;;;;;16.85;2.20;;;8.50;99.90;;;;;;5032478;28;20048;-48
2023/12/08 00:55:48;;;;;;;11.10;2.00;;;8.50;99.90;;;;;;5032528;28;20116;-45
2023/12/08 00:58:17;;;;;;;6.38;1.70;;;8.50;99.90;;;;;;5032410;28;20032;-45
2023/12/08 01:00:43;;;;;;;14.55;2.22;;;8.40;99.90;;;;;;5032618;28;20041;-48
2023/12/08 01:03:09;;;;;;;8.18;2.00;;;8.30;99.90;;;;;;5032019;28;20044;-47
2023/12/08 01:05:35;;;;;;;6.88;1.83;;;8.20;99.90;;;;;;5032361;28;20379;-44
2023/12/08 01:08:00;;;;;;;5.85;1.60;;;8.10;99.90;;;;;;5032225;28;20025;-50
2023/12/08 01:10:26;;;;;;;7.60;1.90;;;8.00;99.90;;;;;;5032132;28;20069;-53
2023/12/08 01:12:52;;;;;;;5.90;1.80;;;8.00;99.90;;;;;;5032334;28;20017;-46
2023/12/08 01:15:17;;;;;;;5.35;1.70;;;7.90;99.90;;;;;;5031955;28;20030;-47
2023/12/08 01:17:43;;;;;;;6.13;1.58;;;7.90;99.90;;;;;;5031831;28;20402;-47
2023/12/08 01:20:09;;;;;;;3.80;1.55;;;7.80;99.90;;;;;;5031844;28;20021;-48
2023/12/08 01:22:35;;;;;;;5.35;1.45;;;7.80;99.90;;;;;;5032179;28;20042;-45
2023/12/08 01:25:00;;;;;;;5.90;1.35;;;7.80;99.90;;;;;;5032013;28;20462;-47
2023/12/08 01:27:27;;;;;;;8.48;2.20;;;7.80;99.90;;;;;;5031914;28;20029;-45
2023/12/08 01:29:53;;;;;;;8.48;2.40;;;7.80;99.90;;;;;;5031884;28;20029;-46
2023/12/08 01:32:18;;;;;;;8.55;2.22;;;7.70;99.90;;;;;;5031638;28;20117;-46
2023/12/08 01:34:44;;;;;;;6.93;2.22;;;7.70;99.90;;;;;;5031881;28;20380;-46
2023/12/08 01:37:09;;;;;;;9.85;1.92;;;7.70;99.90;;;;;;5031730;28;20029;-48
2023/12/08 01:39:35;;;;;;;8.48;1.60;;;7.70;99.90;;;;;;5031765;28;20028;-47
2023/12/08 01:42:02;;;;;;;9.63;1.90;;;7.70;99.90;;;;;;5031494;28;20394;-47
2023/12/08 01:44:28;;;;;;;5.30;1.35;;;7.60;99.90;;;;;;5031438;28;20498;-45
2023/12/08 01:46:53;;;;;;;3.47;1.25;;;7.60;99.90;;;;;;5031610;28;20482;-44
2023/12/08 01:49:19;;;;;;;21.80;3.10;;;7.50;99.90;;;;;;5018806;28;20021;-50
2023/12/08 01:51:45;;;;;;;8.40;2.30;;;7.50;99.90;;;;;;5030449;28;20029;-48
2023/12/08 01:54:12;;;;;;;18.10;2.75;;;7.50;99.90;;;;;;5031546;28;20026;-48
2023/12/08 01:56:38;;;;;;;8.45;2.10;;;7.50;99.90;;;;;;5031315;28;20053;-50
2023/12/08 01:59:04;;;;;;;10.02;2.42;;;7.50;99.90;;;;;;5031088;28;20017;-45
2023/12/08 02:01:30;;;;;;;12.05;2.10;;;7.50;99.90;;;;;;5031208;28;20044;-48
2023/12/08 02:03:56;;;;;;;12.15;2.88;;;7.60;99.90;;;;;;5031370;28;20092;-47
2023/12/08 02:06:22;;;;;;;6.43;1.80;;;7.60;99.90;;;;;;5031282;28;20119;-52
2023/12/08 02:08:48;;;;;;;10.68;2.13;;;7.60;99.90;;;;;;5022253;28;20616;-53
2023/12/08 02:11:15;;;;;;;11.93;2.92;;;7.60;99.90;;;;;;5028089;28;20025;-49
2023/12/08 02:13:42;;;;;;;9.85;2.03;;;7.60;99.90;;;;;;5029689;28;20014;-55
2023/12/08 02:16:25;;;;;;;11.52;2.38;;;7.50;99.90;;;;;;5030795;28;20051;-46
2023/12/08 02:18:52;;;;;;;9.65;1.92;;;7.50;99.90;;;;;;5028966;28;20018;-51
2023/12/08 02:21:19;;;;;;;7.50;2.78;;;7.40;99.90;;;;;;5027956;28;20120;-50
2023/12/08 02:23:48;;;;;;;7.40;1.98;;;7.40;99.90;;;;;;5030303;28;20486;-46
2023/12/08 02:26:14;;;;;;;7.13;1.52;;;7.40;99.90;;;;;;5029250;28;20076;-45
2023/12/08 02:28:40;;;;;;;13.88;2.53;;;7.30;99.90;;;;;;5028783;28;20034;-48
2023/12/08 02:31:10;;;;;;;8.32;2.35;;;7.30;99.90;;;;;;5029190;28;20095;-49
2023/12/08 02:33:37;;;;;;;9.85;1.90;;;7.30;99.90;;;;;;5029351;28;20104;-48
2023/12/08 02:36:05;;;;;;;6.63;2.00;;;7.30;99.90;;;;;;5028996;28;20032;-53
2023/12/08 02:38:32;;;;;;;6.65;1.92;;;7.20;99.90;;;;;;5028870;28;20474;-48
2023/12/08 02:40:59;;;;;;;9.20;2.58;;;7.20;99.90;;;;;;5029108;28;20553;-50
2023/12/08 02:43:25;;;;;;;10.15;1.80;;;7.10;99.90;;;;;;5028660;28;20036;-48
2023/12/08 02:45:50;;;;;;;11.07;2.13;;;7.10;99.90;;;;;;5028895;28;20010;-51
2023/12/08 02:48:16;;;;;;;5.97;1.92;;;7.10;99.90;;;;;;5025235;28;20029;-48
2023/12/08 02:50:43;;;;;;;9.70;1.65;;;7.20;99.90;;;;;;5029076;28;20033;-48
2023/12/08 02:53:08;;;;;;;4.32;1.40;;;7.10;99.90;;;;;;5011458;28;20458;-46
2023/12/08 02:55:34;;;;;;;7.43;1.45;;;7.10;99.90;;;;;;5028563;28;20105;-54
2023/12/08 02:58:00;;;;;;;8.63;1.88;;;7.00;99.90;;;;;;5028973;28;20397;-48
2023/12/08 03:00:26;;;;;;;3.95;1.35;;;7.00;99.90;;;;;;5028731;28;20071;-49
2023/12/08 03:02:51;;;;;;;7.38;1.55;;;7.00;99.90;;;;;;5028589;28;20041;-47
2023/12/08 03:05:17;;;;;;;6.07;1.92;;;7.00;99.90;;;;;;5028656;28;20021;-50
2023/12/08 03:07:43;;;;;;;4.70;1.30;;;6.90;99.90;;;;;;5028649;28;20430;-48
2023/12/08 03:10:09;;;;;;;6.53;1.67;;;6.90;99.90;;;;;;5028641;28;20044;-48
2023/12/08 03:12:35;;;;;;;3.97;1.50;;;6.90;99.90;;;;;;5028570;28;20498;-49
2023/12/08 03:15:01;;;;;;;4.32;1.55;;;6.80;99.90;;;;;;5028600;28;20085;-55
2023/12/08 03:17:26;;;;;;;4.78;1.52;;;6.80;99.90;;;;;;5030673;28;20075;-50
2023/12/08 03:19:52;;;;;;;6.75;2.03;;;6.70;99.90;;;;;;5028578;28;20033;-50
2023/12/08 03:22:18;;;;;;;9.70;2.10;;;6.60;99.90;;;;;;5028412;28;20037;-51
2023/12/08 03:24:43;;;;;;;7.95;1.80;;;6.50;99.90;;;;;;5028402;28;20033;-50
2023/12/08 03:27:09;;;;;;;8.13;1.50;;;6.50;99.90;;;;;;5028407;28;20026;-52
2023/12/08 03:29:41;;;;;;;4.55;1.80;;;6.40;99.90;;;;;;5028618;28;20054;-46
2023/12/08 03:32:07;;;;;;;6.25;1.50;;;6.30;99.90;;;;;;5028524;28;20026;-52
2023/12/08 03:34:33;;;;;;;5.30;1.80;;;6.30;99.90;;;;;;5028221;28;20159;-48
2023/12/08 03:36:59;;;;;;;6.60;1.50;;;6.20;99.90;;;;;;5028556;28;20021;-46
2023/12/08 03:39:25;;;;;;;3.53;1.15;;;6.10;99.90;;;;;;5027776;28;20394;-47
2023/12/08 03:41:50;;;;;;;3.70;1.02;;;6.10;99.90;;;;;;5031476;28;20103;-51
2023/12/08 03:44:16;;;;;;;6.80;1.17;;;6.00;99.90;;;;;;5032008;28;20041;-53
2023/12/08 03:46:44;;;;;;;3.03;1.00;;;5.90;99.90;;;;;;5032433;28;20021;-48
2023/12/08 03:49:10;;;;;;;3.10;1.43;;;5.90;99.90;;;;;;5029167;28;20358;-46
2023/12/08 03:51:36;;;;;;;3.92;1.30;;;5.90;99.90;;;;;;5030475;28;20031;-50
2023/12/08 03:54:01;;;;;;;8.60;1.45;;;5.90;99.90;;;;;;5031596;28;20393;-49
2023/12/08 03:56:27;;;;;;;4.57;1.17;;;6.00;99.90;;;;;;5031767;28;20026;-51
2023/12/08 03:58:53;;;;;;;4.00;1.35;;;6.00;99.90;;;;;;5031918;28;20025;-47
2023/12/08 04:01:19;;;;;;;2.50;0.98;;;6.00;99.90;;;;;;5032024;28;20029;-47
2023/12/08 04:03:45;;;;;;;2.60;1.00;;;6.00;99.90;;;;;;5031894;28;20029;-48
2023/12/08 04:06:11;;;;;;;2.75;1.00;;;6.00;99.90;;;;;;5032136;28;20021;-52
2023/12/08 04:08:37;;;;;;;4.68;0.95;;;5.90;99.90;;;;;;5031753;28;20048;-51
2023/12/08 04:11:03;;;;;;;6.90;1.30;;;5.90;99.90;;;;;;5031932;28;20097;-49
2023/12/08 04:13:29;;;;;;;3.72;1.30;;;6.00;99.90;;;;;;5032079;28;20114;-50
2023/12/08 04:15:54;;;;;;;5.10;1.08;;;5.90;99.90;;;;;;5032636;28;20044;-53
2023/12/08 04:18:20;;;;;;;1.98;0.98;;;5.90;99.90;;;;;;5033352;28;20087;-54
2023/12/08 04:20:46;;;;;;;3.03;0.95;;;6.00;99.90;;;;;;5032400;28;20023;-53
2023/12/08 04:23:11;;;;;;;1.40;0.70;;;5.90;99.90;;;;;;5032597;28;20064;-46
2023/12/08 04:25:37;;;;;;;3.45;0.88;;;5.80;99.90;;;;;;5032675;28;20033;-49
2023/12/08 04:28:03;;;;;;;1.05;0.68;;;5.70;99.90;;;;;;5032732;28;20021;-46
2023/12/08 04:30:29;;;;;;;1.60;0.80;;;5.60;99.90;;;;;;5032522;28;20029;-47
2023/12/08 04:32:55;;;;;;;3.72;1.08;;;5.60;99.90;;;;;;5032686;28;20037;-47
2023/12/08 04:35:21;;;;;;;5.28;1.17;;;5.50;99.90;;;;;;5014631;28;20504;-45
2023/12/08 04:37:47;;;;;;;5.35;1.20;;;5.50;99.90;;;;;;5032234;28;20567;-48
2023/12/08 04:40:13;;;;;;;2.03;0.88;;;5.40;99.90;;;;;;5032706;28;20037;-47
2023/12/08 04:42:39;;;;;;;5.82;0.98;;;5.40;99.90;;;;;;5032466;28;20033;-47
2023/12/08 04:45:05;;;;;;;0.85;0.60;;;5.40;99.90;;;;;;5032117;28;20107;-46
2023/12/08 04:47:31;;;;;;;2.00;1.08;;;5.30;99.90;;;;;;5032135;28;20036;-51
2023/12/08 04:49:56;;;;;;;1.40;0.90;;;5.30;99.90;;;;;;5030780;28;20033;-45
2023/12/08 04:52:22;;;;;;;4.50;0.98;;;5.30;99.90;;;;;;5031634;28;20025;-48
2023/12/08 04:54:48;;;;;;;4.53;1.58;;;5.30;99.90;;;;;;5032068;28;20367;-51
2023/12/08 04:57:14;;;;;;;2.97;1.08;;;5.30;99.90;;;;;;5032439;28;20084;-51
2023/12/08 04:59:39;;;;;;;17.88;2.10;;;5.30;99.90;;;;;;5032080;28;20033;-53
2023/12/08 05:02:05;;;;;;;9.18;1.60;;;5.30;99.90;;;;;;5032007;28;20037;-55
2023/12/08 05:04:31;;;;;;;4.88;1.48;;;5.20;99.90;;;;;;5032327;28;20018;-52
2023/12/08 05:06:57;;;;;;;3.40;0.95;;;5.20;99.90;;;;;;5031842;28;20409;-52
2023/12/08 05:09:22;;;;;;;4.43;1.30;;;5.20;99.90;;;;;;5031613;28;20041;-47
2023/12/08 05:11:48;;;;;;;10.30;1.05;;;5.20;99.90;;;;;;5031945;28;20030;-50
2023/12/08 05:14:14;;;;;;;6.97;0.95;;;5.10;99.90;;;;;;5032116;28;20048;-48
2023/12/08 05:16:40;;;;;;;1.75;0.70;;;5.00;99.90;;;;;;5032119;28;20061;-49
2023/12/08 05:19:06;;;;;;;4.10;1.00;;;5.00;99.90;;;;;;5031730;28;20076;-47
2023/12/08 05:21:32;;;;;;;4.25;0.80;;;5.10;99.90;;;;;;5031916;28;20517;-50
2023/12/08 05:23:57;;;;;;;1.75;1.13;;;5.20;99.90;;;;;;5031508;28;20037;-50
2023/12/08 05:26:25;;;;;;;2.30;1.02;;;5.10;99.90;;;;;;5032064;28;20048;-45
2023/12/08 05:28:50;;;;;;;3.17;0.98;;;5.00;99.90;;;;;;5030793;28;20061;-46
2023/12/08 05:31:16;;;;;;;1.35;0.73;;;4.90;99.90;;;;;;5031651;28;20057;-48
2023/12/08 05:33:42;;;;;;;5.50;1.23;;;4.90;99.90;;;;;;5031593;28;20029;-51
2023/12/08 05:36:09;;;;;;;3.53;0.90;;;4.80;99.90;;;;;;5031286;28;20040;-50
2023/12/08 05:38:35;;;;;;;8.02;1.83;;;4.80;99.90;;;;;;5022168;28;20478;-46
2023/12/08 05:41:01;;;;;;;7.35;1.50;;;4.80;99.90;;;;;;5031354;28;20033;-53
2023/12/08 05:43:27;;;;;;;3.70;1.25;;;4.90;99.90;;;;;;5031393;28;20048;-45
2023/12/08 05:45:53;;;;;;;6.60;1.33;;;4.90;99.90;;;;;;5031382;28;20025;-47
2023/12/08 05:48:19;;;;;;;10.95;2.40;;;4.90;99.90;;;;;;5031658;28;20025;-52
2023/12/08 05:50:45;;;;;;;20.10;1.88;;;4.90;99.90;;;;;;5031265;28;20048;-47
2023/12/08 05:53:10;;;;;;;9.27;1.35;;;5.00;99.90;;;;;;5031312;28;20025;-50
2023/12/08 05:55:36;;;;;;;5.85;1.73;;;5.00;99.90;;;;;;5031447;28;20136;-45
2023/12/08 05:58:02;;;;;;;5.70;1.77;;;5.00;99.90;;;;;;5031421;28;20021;-46
2023/12/08 06:00:27;;;;;;;8.25;1.35;;;4.90;99.90;;;;;;5030946;28;20037;-47
2023/12/08 06:02:53;;;;;;;5.40;1.63;;;4.90;99.90;;;;;;5031112;28;20057;-45
2023/12/08 06:05:19;;;;;;;7.20;2.30;;;4.80;99.90;;;;;;5030018;28;20132;-48
2023/12/08 06:07:44;;;;;;;8.27;1.48;;;4.80;99.90;;;;;;5030820;28;20413;-50
2023/12/08 06:10:13;;;;;;;9.73;1.88;;;4.70;99.90;;;;;;5030814;28;20021;-46
2023/12/08 06:12:39;;;;;;;7.05;1.20;;;4.70;99.90;;;;;;5018288;28;20056;-51
2023/12/08 06:15:09;;;;;;;6.03;1.60;;;4.60;99.90;;;;;;5028936;28;20057;-50
2023/12/08 06:17:36;;;;;;;8.77;1.35;;;4.60;99.90;;;;;;5029179;28;20504;-48
2023/12/08 06:20:04;;;;;;;8.18;1.40;;;4.50;99.90;;;;;;5030591;28;20105;-51
2023/12/08 06:22:30;;;;;;;6.85;1.48;;;4.50;99.90;;;;;;5030353;28;20045;-46
2023/12/08 06:24:56;;;;;;;5.57;1.40;;;4.50;99.90;;;;;;5030819;28;20029;-48
2023/12/08 06:27:22;;;;;;;6.50;1.52;;;4.50;99.90;;;;;;5028563;28;20131;-51
2023/12/08 06:29:47;;;;;;;5.72;1.10;;;4.60;99.90;;;;;;5028248;28;20367;-46
2023/12/08 06:32:13;;;;;;;5.20;1.40;;;4.70;99.90;;;;;;5030087;28;20056;-52
2023/12/08 06:34:38;;;;;;;14.48;1.75;;;4.70;99.90;;;;;;5030407;28;20068;-50
2023/12/08 06:37:04;;;;;;;4.63;1.10;;;4.70;99.90;;;;;;5030456;28;20068;-48
2023/12/08 06:39:30;;;;;;;5.25;1.15;;;4.70;99.90;;;;;;5030209;28;20072;-48
2023/12/08 06:41:55;;;;;;;7.75;1.48;;;4.70;99.90;;;;;;5012232;28;20465;-46
2023/12/08 06:44:21;;;;;;;5.03;1.55;;;4.70;99.90;;;;;;5029759;28;20537;-48
2023/12/08 06:46:46;;;;;;;7.10;1.90;;;4.70;99.90;;;;;;5030315;28;20121;-52
2023/12/08 06:49:12;;;;;;;7.10;1.38;;;4.70;99.90;;;;;;5030392;28;20095;-52
2023/12/08 06:51:38;;;;;;;12.27;2.25;;;4.70;99.90;;;;;;5021320;28;20103;-47
2023/12/08 06:54:04;;;;;;;8.57;1.70;;;4.80;99.90;;;;;;5030147;28;20052;-53
2023/12/08 06:56:30;;;;;;;6.03;1.60;;;4.90;99.90;;;;;;5029925;28;20029;-47
2023/12/08 06:58:56;;;;;;;10.98;1.38;;;4.80;99.90;;;;;;5025135;28;20037;-49
2023/12/08 07:01:22;;;;;;;4.50;1.58;;;4.70;99.90;;;;;;5029948;28;20379;-49
2023/12/08 07:03:48;;;;;;;6.82;1.63;;;4.60;99.90;;;;;;5030080;28;20032;-48
2023/12/08 07:06:14;;;;;;;6.57;2.00;;;4.50;99.90;;;;;;5029965;28;20095;-48
2023/12/08 07:08:40;;;;;;;4.22;1.38;;;4.50;99.90;;;;;;5029038;28;20028;-51
2023/12/08 07:11:05;;;;;;;9.43;1.52;;;4.50;99.90;;;;;;5030270;28;20037;-45
2023/12/08 07:13:31;;;;;;;3.17;1.23;;;4.40;99.90;;;;;;5029767;28;20390;-48
2023/12/08 07:15:57;;;;;;;10.13;1.85;;;4.50;99.90;;;;;;5029588;28;20029;-53
2023/12/08 07:18:23;;;;;;;4.85;1.85;;;4.50;99.90;;;;;;5030208;28;20467;-48
2023/12/08 07:20:48;;;;;;;8.23;1.88;;;4.50;99.90;;;;;;5029669;28;20048;-45
2023/12/08 07:23:14;;;;;;;7.97;2.00;;;4.50;99.90;;;;;;5028414;28;20040;-49
2023/12/08 07:25:39;;;;;;;10.18;2.45;;;4.40;99.90;;;;;;5022113;28;20606;-48
2023/12/08 07:28:05;;;;;;;4.15;1.90;;;4.50;99.90;;;;;;5026975;28;20025;-50
2023/12/08 07:30:31;;;;;;;4.22;1.63;;;4.40;99.90;;;;;;5030423;28;20421;-47
2023/12/08 07:32:56;;;;;;;6.22;1.42;;;4.40;99.90;;;;;;5029210;28;20104;-49
2023/12/08 07:35:22;;;;;;;5.07;1.20;;;4.50;99.90;;;;;;5029329;28;20108;-49
2023/12/08 07:37:49;;;;;;;8.98;2.88;;;4.60;99.90;;;;;;5029224;28;20047;-45
2023/12/08 07:40:14;;;;;;;7.22;2.20;;;4.60;99.90;;;;;;5029397;28;20018;-46
2023/12/08 07:42:41;;;;;;;5.90;1.40;;;4.60;99.90;;;;;;5029569;28;20117;-46
2023/12/08 07:45:08;;;;;;;11.55;2.00;;;4.60;99.90;;;;;;5029049;28;20124;-46
2023/12/08 07:47:34;;;;;;;12.27;1.92;;;4.60;99.90;;;;;;5029771;28;20021;-46
2023/12/08 07:49:59;;;;;;;11.10;2.00;;;4.60;99.90;;;;;;5028889;28;20042;-49
2023/12/08 07:52:26;;;;;;;5.15;1.73;;;4.60;99.90;;;;;;5029298;28;20489;-49
2023/12/08 07:54:51;;;;;;;5.45;1.45;;;4.60;99.90;;;;;;5029560;28;20095;-50
2023/12/08 07:57:18;;;;;;;13.88;2.10;;;4.50;99.90;;;;;;5026557;28;20478;-53
2023/12/08 07:59:44;;;;;;;6.50;2.35;;;4.40;99.90;;;;;;5029046;28;20029;-51
2023/12/08 08:02:10;;;;;;;7.35;2.22;;;4.30;99.90;;;;;;5029603;28;20033;-50
2023/12/08 08:04:36;;;;;;;7.07;1.88;;;4.40;99.90;;;;;;5029566;28;20462;-49
2023/12/08 08:07:01;;;;;;;5.35;1.48;;;4.30;99.90;;;;;;5029367;28;20092;-49
2023/12/08 08:09:27;;;;;;;7.45;1.92;;;4.40;99.90;;;;;;5028812;28;20112;-52
2023/12/08 08:11:53;;;;;;;5.90;1.70;;;4.40;99.90;;;;;;5028901;28;20103;-49
2023/12/08 08:14:20;;;;;;;2.65;1.45;;;4.40;99.90;;;;;;5024144;28;20486;-46
2023/12/08 08:16:50;;;;;;;8.70;2.15;;;4.50;99.90;;;;;;5029242;28;20036;-46
2023/12/08 08:19:23;;;;;;;5.35;1.83;;;4.60;99.90;;;;;;5028784;28;20022;-47
2023/12/08 08:21:50;;;;;;;7.47;1.85;;;4.60;99.90;;;;;;5029138;28;20069;-48
2023/12/08 08:24:17;;;;;;;11.10;2.08;;;4.80;99.90;;;;;;5028914;28;20087;-52
2023/12/08 08:26:47;;;;;;;6.18;2.10;;;4.90;99.90;;;;;;5029308;28;20068;-48
2023/12/08 08:29:16;;;;;;;5.93;2.05;;;5.10;99.90;;;;;;5032534;28;20025;-47
2023/12/08 08:31:43;;;;;;;5.38;1.92;;;5.30;99.90;;;;;;5032965;28;20100;-50
2023/12/08 08:34:12;;;;;;;5.40;2.00;;;5.40;99.90;;;;;;5033035;28;20037;-51
2023/12/08 08:36:40;;;;;;;7.93;2.10;;;5.60;99.90;;;;;;5032954;28;20104;-54
2023/12/08 08:39:08;;;;;;;8.98;2.13;;;6.00;99.90;;;;;;5032425;28;20064;-49
2023/12/08 08:41:35;;;;;;;5.72;1.80;;;6.40;99.90;;;;;;5032458;28;20371;-48
2023/12/08 08:44:04;;;;;;;4.38;2.00;;;6.80;99.90;;;;;;5032260;28;20101;-47
2023/12/08 08:46:34;;;;;;;8.05;2.22;;;7.50;99.90;;;;;;5032390;28;20048;-52
2023/12/08 08:49:00;;;;;;;7.60;1.90;;;8.30;99.90;;;;;;5032571;28;20390;-51
2023/12/08 08:51:28;;;;;;;6.50;1.98;;;8.50;99.90;;;;;;5031995;28;20033;-49
2023/12/08 08:53:54;;;;;;;7.63;2.65;;;8.30;99.90;;;;;;5032043;28;20034;-50
2023/12/08 08:56:24;;;;;;;8.23;2.08;;;8.20;99.90;;;;;;5031881;28;20029;-50
2023/12/08 08:58:50;;;;;;;13.25;2.55;;;8.00;99.90;;;;;;5031622;28;20037;-53
2023/12/08 09:01:18;;;;;;;9.15;2.47;;;7.80;99.90;;;;;;5031980;28;20030;-49
2023/12/08 09:03:45;;;;;;;5.57;1.85;;;7.80;99.90;;;;;;5031781;28;20110;-50
2023/12/08 09:06:11;;;;;;;13.50;3.55;;;7.70;99.90;;;;;;5031783;28;20021;-52
2023/12/08 09:08:39;;;;;;;9.63;2.45;;;7.60;99.90;;;;;;5031215;28;20104;-50
2023/12/08 09:11:08;;;;;;;7.75;1.98;;;7.40;99.90;;;;;;5032024;28;20029;-53
2023/12/08 09:13:38;;;;;;;7.45;1.73;;;7.30;99.90;;;;;;5031324;28;20029;-50
2023/12/08 09:16:07;;;;;;;13.05;2.15;;;7.20;99.90;;;;;;5031849;28;20013;-51
2023/12/08 09:18:36;;;;;;;12.65;2.00;;;7.20;99.90;;;;;;5031714;28;20022;-48
2023/12/08 09:21:05;;;;;;;10.50;2.10;;;7.20;99.90;;;;;;5025572;28;20017;-52
2023/12/08 09:23:30;;;;;;;15.23;3.17;;;7.30;99.90;;;;;;5023296;28;20037;-51
2023/12/08 09:25:56;;;;;;;14.45;2.35;;;7.60;99.90;;;;;;5030972;28;20025;-54
2023/12/08 09:28:22;;;;;;;13.90;2.65;;;7.80;99.90;;;;;;5031791;28;20033;-54
2023/12/08 09:30:47;;;;;;;7.15;2.15;;;8.00;99.90;;;;;;5031417;28;20025;-49
2023/12/08 09:33:14;;;;;;;15.27;2.75;;;8.30;99.90;;;;;;5030081;28;20050;-48
2023/12/08 09:35:40;;;;;;;11.68;2.08;;;8.70;99.90;;;;;;5029404;28;20486;-48
2023/12/08 09:38:06;;;;;;;12.05;2.33;;;8.80;99.90;;;;;;5018588;28;20512;-54
2023/12/08 09:40:33;;;;;;;15.38;2.92;;;8.80;99.90;;;;;;5030011;28;20045;-52
2023/12/08 09:43:25;;;;;;;16.55;2.88;;;8.80;99.90;;;;;;5031197;28;20068;-58
2023/12/08 09:45:53;;;;;;;11.98;2.40;;;8.90;99.90;;;;;;5023108;28;20037;-51
2023/12/08 09:48:21;;;;;;;12.45;2.55;;;9.10;99.90;;;;;;5031335;28;20026;-53
2023/12/08 09:50:52;;;;;;;9.55;2.75;;;9.20;99.90;;;;;;5027395;28;20498;-53
2023/12/08 09:53:22;;;;;;;15.27;3.47;;;9.20;99.90;;;;;;5030251;28;20082;-49
2023/12/08 09:55:48;;;;;;;;;;;9.30;99.90;;;;;;5031550;28;20032;-53
2023/12/08 09:58:19;;;;;;;18.70;3.75;;;9.50;99.90;;;;;;5030692;28;19933;-52
2023/12/08 10:00:48;;;;;;;14.25;3.55;;;9.70;99.90;;;;;;5031081;28;20028;-48
2023/12/08 10:03:16;;;;;;;20.20;6.20;;;10.10;99.90;;;;;;5031052;28;20029;-51
2023/12/08 10:05:44;;;;;;;19.73;4.30;;;10.70;99.90;;;;;;5031321;28;20021;-52
2023/12/08 10:08:11;;;;;;;20.17;4.07;;;11.10;99.90;;;;;;5030782;28;20104;-53
2023/12/08 10:10:38;;;;;;;12.30;3.10;;;11.80;99.90;;;;;;5031116;28;20018;-49
2023/12/08 10:13:04;;;;;;;13.00;2.13;;;13.00;99.90;;;;;;5031184;28;20030;-54
2023/12/08 10:15:31;;;;;;;6.22;2.13;;;13.80;99.90;;;;;;5031425;28;20036;-55
2023/12/08 10:17:56;;;;;;;16.67;2.20;;;13.70;99.90;;;;;;5025151;28;20033;-48
2023/12/08 10:20:23;;;;;;;16.27;2.30;;;13.20;99.90;;;;;;5026982;28;20036;-51
2023/12/08 10:22:53;;;;;;;20.20;2.53;;;12.80;99.90;;;;;;5029970;28;20069;-52
2023/12/08 10:25:25;;;;;;;8.65;2.10;;;12.40;99.90;;;;;;5030765;28;20021;-53
2023/12/08 10:27:53;;;;;;;7.95;1.83;;;12.20;99.90;;;;;;5030868;28;20117;-50
2023/12/08 10:30:20;;;;;;;16.85;2.95;;;12.20;99.90;;;;;;5030351;28;20417;-53
2023/12/08 10:32:46;;;;;;;18.05;2.65;;;12.90;99.90;;;;;;5029039;28;20025;-49
2023/12/08 10:35:12;;;;;;;16.63;2.75;;;14.30;99.90;;;;;;5029558;28;20059;-51
2023/12/08 10:37:39;;;;;;;11.75;1.90;;;16.00;99.90;;;;;;5027504;28;20060;-53
2023/12/08 10:40:13;;;;;;;16.27;2.15;;;17.30;99.90;;;;;;5029790;28;20025;-53
2023/12/08 10:42:39;;;;;;;11.65;2.53;;;18.30;99.90;;;;;;5029692;28;20394;-52
2023/12/08 10:45:11;;;;;;;9.32;1.80;;;19.20;99.90;;;;;;5029343;28;20038;-51
2023/12/08 10:47:43;;;;;;;11.00;2.35;;;19.50;99.90;;;;;;5030024;28;20030;-54
2023/12/08 10:50:09;;;;;;;9.88;2.00;;;19.90;99.90;;;;;;5030022;28;20021;-55
2023/12/08 10:52:37;;;;;;;11.07;1.83;;;20.40;99.90;;;;;;5030176;28;20120;-54
2023/12/08 10:55:07;;;;;;;15.70;2.50;;;20.20;99.90;;;;;;5028647;28;20030;-53
2023/12/08 10:57:34;;;;;;;9.85;1.77;;;20.10;99.90;;;;;;5029304;28;20073;-54
2023/12/08 11:03:01;;;;;;;12.25;1.73;;;20.10;99.90;;;;;;5012580;28;20041;-48
2023/12/08 11:05:45;;;;;;;11.50;1.95;;;20.40;99.90;;;;;;5029689;28;20592;-52
2023/12/08 11:08:15;;;;;;;7.40;1.85;;;20.30;99.90;;;;;;5029533;28;20086;-52
2023/12/08 11:10:44;;;;;;;11.55;1.80;;;20.10;99.90;;;;;;5028871;28;20022;-57
2023/12/08 11:13:19;;;;;;;13.90;2.22;;;19.50;99.90;;;;;;5029260;28;20028;-56
2023/12/08 11:16:01;;;;;;;8.35;1.73;;;18.90;99.90;;;;;;5029510;28;20030;-52
2023/12/08 11:18:30;;;;;;;12.68;1.95;;;18.90;99.90;;;;;;5029366;28;20082;-49
2023/12/08 11:20:56;;;;;;;12.55;2.65;;;18.90;99.90;;;;;;5029144;28;20458;-47
2023/12/08 11:23:22;;;;;;;8.43;1.77;;;19.50;99.90;;;;;;5028917;28;20493;-47
2023/12/08 11:25:57;;;;;;;7.00;1.52;;;19.60;99.90;;;;;;5029100;28;20017;-47
2023/12/08 11:28:49;;;;;;;8.70;1.63;;;19.70;99.90;;;;;;5028580;28;20034;-54
2023/12/08 11:31:30;;;;;;;11.05;1.75;;;19.80;99.90;;;;;;5026066;28;20037;-51
2023/12/08 11:34:06;;;;;;;8.25;1.70;;;20.00;99.90;;;;;;5019475;28;20025;-47
2023/12/08 11:36:33;;;;;;;13.32;2.58;;;19.50;99.90;;;;;;5029405;28;20462;-47
2023/12/08 11:38:58;;;;;;;11.55;2.50;;;18.80;99.90;;;;;;5029430;28;20029;-48
2023/12/08 11:41:27;;;;;;;11.07;1.70;;;18.50;99.90;;;;;;5029603;28;20386;-50
2023/12/08 11:43:53;;;;;;;20.38;2.80;;;18.00;99.90;;;;;;5029143;28;20080;-51
2023/12/08 11:46:19;;;;;;;9.98;1.35;;;17.50;99.90;;;;;;5028838;28;20026;-51
2023/12/08 11:48:51;;;;;;;9.68;1.73;;;17.70;99.90;;;;;;5027963;28;20021;-51
2023/12/08 11:51:17;;;;;;;9.98;2.40;;;18.40;99.90;;;;;;5029722;28;20025;-51
2023/12/08 11:53:55;;;;;;;10.68;1.92;;;18.90;99.90;;;;;;5011860;28;20025;-51
2023/12/08 11:56:45;;;;;;;12.57;2.78;;;18.40;99.90;;;;;;5029818;28;20030;-47
2023/12/08 11:59:22;;;;;;;12.27;1.85;;;17.40;99.90;;;;;;5027923;28;20037;-51
2023/12/08 12:01:48;;;;;;;18.23;2.33;;;17.30;99.90;;;;;;5028507;28;20037;-53
2023/12/08 12:04:14;;;;;;;11.88;1.92;;;17.30;99.90;;;;;;5032775;28;20488;-52
2023/12/08 12:06:43;;;;;;;6.28;1.67;;;18.00;99.90;;;;;;5032825;28;20028;-53
2023/12/08 12:09:09;;;;;;;10.18;1.60;;;18.70;99.90;;;;;;5031963;28;20120;-53
2023/12/08 12:11:39;;;;;;;10.63;2.17;;;19.40;99.90;;;;;;5032656;28;20053;-52
2023/12/08 12:14:07;;;;;;;10.00;1.90;;;20.10;99.90;;;;;;5032974;28;20036;-52
2023/12/08 12:16:33;;;;;;;12.15;2.30;;;20.70;99.90;;;;;;5032603;28;20038;-55
2023/12/08 12:18:59;;;;;;;10.27;2.22;;;20.90;99.90;;;;;;5029703;28;20030;-53
2023/12/08 12:21:24;;;;;;;10.07;2.22;;;20.80;99.90;;;;;;5032868;28;20245;-51
2023/12/08 12:23:50;;;;;;;12.88;2.58;;;20.60;99.90;;;;;;5028666;28;20029;-49
2023/12/08 12:26:20;;;;;;;8.35;1.80;;;20.40;99.90;;;;;;5027393;28;20029;-48
2023/12/08 12:28:46;;;;;;;7.70;1.88;;;19.90;99.90;;;;;;5032930;28;20038;-52
2023/12/08 12:31:14;;;;;;;11.48;2.40;;;19.60;99.90;;;;;;5032559;28;20091;-48
2023/12/08 12:33:42;;;;;;;17.75;2.35;;;18.00;99.90;;;;;;5028537;28;20026;-50
2023/12/08 12:36:08;;;;;;;12.18;2.13;;;16.40;99.90;;;;;;5030738;28;20072;-50
2023/12/08 12:38:33;;;;;;;14.73;2.67;;;15.40;99.90;;;;;;5031927;28;20057;-54
2023/12/08 12:41:18;;;;;;;12.18;1.85;;;14.60;99.90;;;;;;5030465;28;20464;-50
2023/12/08 12:43:45;;;;;;;11.82;1.55;;;14.00;99.90;;;;;;5028771;28;20050;-51
2023/12/08 12:46:10;;;;;;;15.52;1.55;;;13.60;99.90;;;;;;5031907;28;20033;-52
2023/12/08 12:48:36;;;;;;;21.13;2.25;;;13.80;99.90;;;;;;5032277;28;20401;-50
2023/12/08 12:51:03;;;;;;;15.65;2.30;;;14.60;99.90;;;;;;5031829;28;20068;-47
2023/12/08 12:53:29;;;;;;;11.10;1.50;;;15.10;99.90;;;;;;5027398;28;20076;-49